Time;durP1;ratioP1;P1;durP2;ratioP2;P2;SDS_P1;SDS_P2;PMS_P1;PMS_P2;Temp;Humidity;BMP_temperature;BMP_pressure;BME280_temperature;BME280_humidity;BME280_pressure;Samples;Min_cycle;Max_cycle;Signal;HPM_P1;HPM_P2
2021/12/07 00:01:57;;;;;;;91.43;49.03;;;;;;;9.55;94.24;98139.78;5112272;28;20233;-59
2021/12/07 00:04:25;;;;;;;95.63;50.00;;;;;;;9.57;94.28;98132.94;5112589;28;20199;-60
2021/12/07 00:06:52;;;;;;;86.53;50.17;;;;;;;9.63;93.69;98145.75;5112440;28;20201;-59
2021/12/07 00:09:20;;;;;;;87.90;49.67;;;;;;;9.56;93.91;98140.66;5112425;28;20212;-60
2021/12/07 00:11:49;;;;;;;75.97;47.17;;;;;;;9.62;93.60;98153.44;5112358;28;20201;-59
2021/12/07 00:14:23;;;;;;;90.30;46.70;;;;;;;9.60;93.96;98129.50;5112142;28;20198;-59
2021/12/07 00:16:50;;;;;;;85.67;47.80;;;;;;;9.58;93.89;98144.06;5112348;28;20193;-60
2021/12/07 00:19:17;;;;;;;83.00;45.83;;;;;;;9.58;94.29;98146.63;5112020;28;20218;-60
2021/12/07 00:21:47;;;;;;;78.77;43.00;;;;;;;9.58;94.59;98123.53;5112195;28;20197;-60
2021/12/07 00:24:14;;;;;;;77.93;44.13;;;;;;;9.50;94.35;98126.97;5112106;28;20189;-59
2021/12/07 00:26:43;;;;;;;90.87;48.67;;;;;;;9.34;95.31;98129.53;5111836;28;20228;-59
2021/12/07 00:29:13;;;;;;;84.67;46.30;;;;;;;9.40;96.09;98124.41;5111884;28;20682;-59
2021/12/07 00:31:49;;;;;;;77.73;44.30;;;;;;;9.49;95.67;98126.97;5112026;28;20223;-59
2021/12/07 00:34:25;;;;;;;88.03;44.70;;;;;;;9.41;95.28;98101.38;5111890;28;20228;-59
2021/12/07 00:36:54;;;;;;;73.03;42.53;;;;;;;9.39;95.57;98110.75;5111676;28;20190;-59
2021/12/07 00:39:23;;;;;;;82.90;47.80;;;;;;;9.46;95.26;98103.91;5111632;28;20217;-59
2021/12/07 00:41:55;;;;;;;83.47;45.70;;;;;;;9.48;95.53;98102.19;5111969;28;20268;-59
2021/12/07 00:44:23;;;;;;;80.07;44.40;;;;;;;9.52;95.31;98103.03;5111832;28;20200;-59
2021/12/07 00:46:51;;;;;;;75.93;43.53;;;;;;;9.60;95.47;98104.75;5111525;28;20698;-59
2021/12/07 00:49:18;;;;;;;83.50;45.83;;;;;;;9.66;95.40;98102.16;5110814;28;20193;-60
2021/12/07 00:51:45;;;;;;;75.93;44.53;;;;;;;9.71;94.73;98100.44;5111634;28;20193;-60
2021/12/07 00:54:14;;;;;;;97.07;47.10;;;;;;;9.76;94.36;98092.72;5111437;28;20259;-59
2021/12/07 00:56:41;;;;;;;92.13;48.40;;;;;;;9.73;93.79;98072.22;5111650;28;20731;-57
2021/12/07 00:59:07;;;;;;;84.73;45.33;;;;;;;9.78;93.96;98070.50;5111621;28;20218;-57
2021/12/07 01:01:35;;;;;;;84.87;46.97;;;;;;;9.81;94.03;98073.91;5111638;28;20201;-57
2021/12/07 01:04:01;;;;;;;89.72;54.00;;;;;;;9.92;93.88;98068.72;5110508;28;20455;-57
2021/12/07 01:06:32;;;;;;;85.47;48.97;;;;;;;9.94;92.68;98054.19;5111524;28;20593;-57
2021/12/07 01:09:17;;;;;;;89.40;48.77;;;;;;;9.92;91.93;98054.19;5111021;28;20195;-57
2021/12/07 01:25:39;;;;;;;83.73;46.37;;;;;;;9.48;92.63;98041.53;5090531;28;20249;-57
2021/12/07 01:28:18;;;;;;;77.80;46.70;;;;;;;9.53;92.88;98038.09;5090291;28;20237;-57
2021/12/07 01:30:52;;;;;;;85.43;47.53;;;;;;;9.57;92.69;98050.03;5090658;28;20205;-57
2021/12/07 01:33:41;;;;;;;81.47;46.77;;;;;;;9.58;92.45;98055.19;5090450;28;20625;-57
2021/12/07 01:36:24;;;;;;;79.50;46.57;;;;;;;9.37;92.19;98011.66;5094785;28;20204;-57
2021/12/07 01:47:23;;;;;;;88.00;46.70;;;;;;;9.49;92.16;98037.25;5110739;28;20189;-57
2021/12/07 01:50:12;;;;;;;79.53;46.97;;;;;;;9.52;92.59;98033.81;5110610;28;20246;-57
2021/12/07 01:52:52;;;;;;;80.97;45.13;;;;;;;9.55;92.59;98027.00;5110684;28;20201;-57
2021/12/07 02:00:51;;;;;;;83.03;46.47;;;;;;;9.70;92.25;98033.75;5111653;28;20192;-57
2021/12/07 02:03:19;;;;;;;79.30;44.73;;;;;;;9.73;91.99;98026.03;5115001;28;20584;-57
2021/12/07 02:05:46;;;;;;;77.20;45.47;;;;;;;9.71;92.19;98008.13;5115200;28;20197;-57
2021/12/07 02:08:13;;;;;;;74.40;44.47;;;;;;;9.78;92.74;98008.97;5114874;28;20699;-57
2021/12/07 02:10:41;;;;;;;85.63;47.30;;;;;;;9.72;92.88;97997.00;5114789;28;20193;-57
2021/12/07 02:13:20;;;;;;;78.43;45.87;;;;;;;9.71;92.88;97982.47;5114799;28;20190;-57
2021/12/07 02:15:49;;;;;;;78.37;44.43;;;;;;;9.73;93.12;97985.88;5114679;28;20721;-57
2021/12/07 02:18:16;;;;;;;74.80;44.30;;;;;;;9.69;93.27;97999.59;5114517;28;20202;-57
2021/12/07 02:20:47;;;;;;;74.67;44.03;;;;;;;9.76;92.82;98006.38;5114393;28;20189;-57
2021/12/07 02:23:14;;;;;;;79.30;45.47;;;;;;;9.76;92.68;97985.88;5114412;28;20645;-57
2021/12/07 02:25:41;;;;;;;76.30;44.03;;;;;;;9.84;92.73;97984.13;5114192;28;20651;-57
2021/12/07 02:28:13;;;;;;;85.23;45.10;;;;;;;9.90;92.82;97978.97;5113820;28;20240;-57
2021/12/07 02:30:41;;;;;;;76.67;45.63;;;;;;;9.90;92.53;97985.78;5114153;28;20190;-57
2021/12/07 02:33:09;;;;;;;84.13;44.97;;;;;;;9.85;92.71;97962.75;5114342;28;20218;-57
2021/12/07 02:35:36;;;;;;;82.73;44.60;;;;;;;9.87;92.63;97953.31;5114240;28;20289;-57
2021/12/07 02:38:05;;;;;;;76.63;44.67;;;;;;;9.84;92.97;97973.84;5114008;28;20213;-57
2021/12/07 02:40:32;;;;;;;81.90;44.07;;;;;;;9.80;93.25;97971.31;5113995;28;20225;-57
2021/12/07 02:42:59;;;;;;;76.00;44.90;;;;;;;9.77;92.97;97981.59;5114266;28;20194;-57
2021/12/07 02:45:26;;;;;;;86.13;44.80;;;;;;;9.79;93.39;97990.97;5113916;28;20660;-57
2021/12/07 02:47:53;;;;;;;76.80;44.67;;;;;;;9.81;93.22;97991.81;5113975;28;20197;-57
2021/12/07 02:50:20;;;;;;;74.20;43.77;;;;;;;9.83;93.52;97991.81;5113979;28;20216;-57
2021/12/07 02:52:48;;;;;;;77.23;43.07;;;;;;;9.79;93.99;97988.41;5113673;28;20254;-57
2021/12/07 02:55:17;;;;;;;80.93;42.47;;;;;;;9.79;94.19;97974.75;5113930;28;20194;-57
2021/12/07 02:57:44;;;;;;;76.40;43.27;;;;;;;9.77;93.61;97972.19;5113893;28;20194;-57
2021/12/07 03:00:18;;;;;;;76.87;44.17;;;;;;;9.83;93.61;97982.41;5113599;28;20254;-57
2021/12/07 03:02:50;;;;;;;79.90;42.50;;;;;;;9.77;93.71;97961.94;5113668;28;20583;-57
2021/12/07 03:05:26;;;;;;;79.00;42.30;;;;;;;9.78;94.09;97971.31;5113420;28;20191;-57
2021/12/07 03:08:16;;;;;;;126.10;67.30;;;;;;;9.62;94.13;97928.66;5113373;28;20191;-57
2021/12/07 03:27:13;;;;;;;79.23;44.33;;;;;;;9.96;92.50;97972.94;5113171;28;20220;-57
2021/12/07 03:29:39;;;;;;;77.83;43.60;;;;;;;9.97;92.40;97974.66;5112996;28;20208;-57
2021/12/07 03:32:07;;;;;;;78.50;46.03;;;;;;;10.03;92.13;97978.00;5112641;28;20197;-57
2021/12/07 03:34:34;;;;;;;77.10;45.53;;;;;;;10.00;92.11;97987.44;5112943;28;20209;-57
2021/12/07 03:37:01;;;;;;;74.27;44.17;;;;;;;9.93;92.38;97978.94;5112725;28;20698;-57
2021/12/07 03:39:28;;;;;;;87.63;46.37;;;;;;;9.89;92.98;97989.22;5113102;28;20244;-57
2021/12/07 03:41:54;;;;;;;70.50;41.27;;;;;;;9.87;92.86;97983.25;5112730;28;20197;-57
2021/12/07 03:44:23;;;;;;;75.00;45.13;;;;;;;9.85;93.00;97972.16;5112738;28;20193;-57
2021/12/07 03:46:50;;;;;;;77.13;45.40;;;;;;;9.86;93.31;97961.03;5112937;28;20197;-57
2021/12/07 03:49:17;;;;;;;79.80;44.37;;;;;;;9.86;93.38;97955.91;5112560;28;20198;-57
2021/12/07 03:51:44;;;;;;;78.03;44.20;;;;;;;9.82;93.30;97957.63;5112861;28;20581;-57
2021/12/07 03:54:11;;;;;;;84.27;45.93;;;;;;;9.82;93.47;97970.44;5112284;28;20285;-57
2021/12/07 03:56:38;;;;;;;79.33;46.97;;;;;;;9.80;93.56;97968.75;5112658;28;20204;-57
2021/12/07 03:59:05;;;;;;;72.87;44.23;;;;;;;9.85;93.30;97965.31;5112428;28;20237;-57
2021/12/07 04:01:33;;;;;;;81.33;45.93;;;;;;;9.89;93.37;97979.81;5112434;28;20660;-57
2021/12/07 04:04:03;;;;;;;75.57;44.63;;;;;;;9.93;92.99;97978.94;5112396;28;20626;-57
2021/12/07 04:06:30;;;;;;;77.33;46.23;;;;;;;9.91;93.01;97979.81;5112467;28;20198;-57
2021/12/07 04:08:57;;;;;;;81.53;44.50;;;;;;;9.93;93.02;97978.94;5112289;28;20569;-57
2021/12/07 04:11:24;;;;;;;80.07;46.53;;;;;;;9.98;92.69;97977.19;5112083;28;20190;-57
2021/12/07 04:13:50;;;;;;;76.47;44.63;;;;;;;10.00;92.88;97983.16;5112065;28;20198;-57
2021/12/07 04:16:19;;;;;;;82.50;45.30;;;;;;;10.05;92.87;98003.69;5112166;28;20660;-57
2021/12/07 04:18:48;;;;;;;78.40;42.80;;;;;;;10.01;92.89;98013.09;5111969;28;20197;-57
2021/12/07 04:21:14;;;;;;;83.03;44.90;;;;;;;10.03;93.20;98019.06;5112306;28;20189;-57
2021/12/07 04:23:41;;;;;;;81.97;46.17;;;;;;;10.04;93.27;98030.19;5111860;28;20194;-57
2021/12/07 04:26:11;;;;;;;75.83;45.20;;;;;;;10.03;93.65;98024.19;5111893;28;20653;-57
2021/12/07 04:28:39;;;;;;;78.53;43.00;;;;;;;10.00;94.30;98006.25;5111953;28;20197;-57
2021/12/07 04:31:06;;;;;;;77.67;44.53;;;;;;;10.00;94.35;97980.59;5112142;28;20205;-57
2021/12/07 04:33:33;;;;;;;76.40;44.93;;;;;;;9.97;94.21;97954.97;5111695;28;20186;-57
2021/12/07 04:36:02;;;;;;;89.75;51.30;;;;;;;9.77;95.20;97956.81;5111274;28;20925;-57
2021/12/07 04:38:29;;;;;;;87.37;46.17;;;;;;;9.68;95.75;97950.84;5111868;28;20186;-57
2021/12/07 04:40:56;;;;;;;88.87;47.30;;;;;;;9.48;96.59;97921.03;5111591;28;20216;-57
2021/12/07 04:43:22;;;;;;;87.37;49.50;;;;;;;9.42;97.93;97933.06;5111753;28;20193;-57
2021/12/07 04:45:59;;;;;;;84.67;48.23;;;;;;;9.41;98.75;97967.22;5111810;28;20197;-57
2021/12/07 04:48:58;;;;;;;80.97;46.47;;;;;;;9.50;98.96;97974.88;5111649;28;20174;-57
2021/12/07 04:59:44;;;;;;;82.87;46.40;;;;;;;9.64;99.62;98011.56;5111390;28;20274;-57
2021/12/07 05:02:11;;;;;;;86.50;47.97;;;;;;;9.73;99.19;98010.66;5111629;28;20196;-57
2021/12/07 05:04:38;;;;;;;81.20;47.30;;;;;;;9.79;99.18;98005.50;5111629;28;20193;-57
2021/12/07 05:07:12;;;;;;;81.47;45.67;;;;;;;9.86;98.73;98008.03;5111230;28;20284;-57
2021/12/07 05:12:30;;;;;;;75.77;45.43;;;;;;;9.95;98.55;98018.25;5093494;28;20325;-57
2021/12/07 05:15:04;;;;;;;78.73;43.93;;;;;;;10.01;98.17;98007.97;5111385;28;20203;-57
2021/12/07 05:39:31;;;;;;;82.20;45.37;;;;;;;10.12;96.96;97958.28;5110803;28;20259;-58
2021/12/07 05:41:58;;;;;;;74.00;41.73;;;;;;;10.13;96.86;97958.34;5110796;28;20197;-56
2021/12/07 05:44:25;;;;;;;83.37;45.20;;;;;;;10.15;97.03;97953.16;5110591;28;20190;-57
2021/12/07 05:46:52;;;;;;;85.30;44.40;;;;;;;10.19;97.11;97940.31;5110543;28;20546;-57
2021/12/07 05:49:19;;;;;;;85.10;47.50;;;;;;;10.21;96.83;97942.88;5110445;28;20193;-57
2021/12/07 05:51:46;;;;;;;93.27;51.17;;;;;;;10.15;96.68;97948.03;5110521;28;20254;-57
2021/12/07 05:54:13;;;;;;;94.10;47.80;;;;;;;10.13;96.98;97952.34;5110429;28;20197;-57
2021/12/07 05:56:41;;;;;;;94.87;49.60;;;;;;;10.17;97.28;97954.88;5110735;28;20190;-57
2021/12/07 05:59:08;;;;;;;86.07;49.43;;;;;;;10.22;97.65;97950.53;5110504;28;20213;-57
2021/12/07 06:01:34;;;;;;;89.43;50.30;;;;;;;10.24;97.59;97964.25;5110262;28;20221;-57
2021/12/07 06:04:01;;;;;;;92.60;48.13;;;;;;;10.32;97.58;97975.31;5110193;28;20635;-57
2021/12/07 06:06:28;;;;;;;80.27;48.10;;;;;;;10.33;97.33;97969.28;5110267;28;20196;-57
2021/12/07 06:08:55;;;;;;;87.40;49.60;;;;;;;10.31;98.00;97971.03;5110275;28;20193;-57
2021/12/07 06:11:24;;;;;;;78.97;48.03;;;;;;;10.36;97.78;97971.84;5110365;28;20190;-58
2021/12/07 06:13:52;;;;;;;95.83;50.83;;;;;;;10.44;97.79;97959.78;5109964;28;20194;-56
2021/12/07 06:16:19;;;;;;;87.47;51.63;;;;;;;10.51;97.46;97943.50;5109988;28;20434;-56
2021/12/07 06:18:46;;;;;;;86.13;50.93;;;;;;;10.58;97.43;97941.69;5107030;28;20195;-57
2021/12/07 06:21:14;;;;;;;82.90;49.53;;;;;;;10.62;96.64;97949.38;5103623;28;20236;-58
2021/12/07 06:23:41;;;;;;;81.70;47.97;;;;;;;10.68;97.04;97954.44;5109290;28;20590;-57
2021/12/07 06:26:08;;;;;;;73.03;41.80;;;;;;;10.78;96.13;97944.94;5088878;28;20637;-57
2021/12/07 06:28:36;;;;;;;67.20;39.17;;;;;;;10.87;95.65;97944.88;5095144;28;20244;-57
2021/12/07 06:31:04;;;;;;;57.47;33.47;;;;;;;10.89;95.71;97938.00;5105691;28;20194;-57
2021/12/07 06:33:31;;;;;;;56.43;35.33;;;;;;;11.00;95.36;97955.88;5109887;28;20197;-58
2021/12/07 06:36:01;;;;;;;61.63;36.90;;;;;;;11.08;95.07;97957.50;5109615;28;20251;-58
2021/12/07 06:38:29;;;;;;;57.93;35.87;;;;;;;11.12;94.34;97954.00;5109862;28;20186;-57
2021/12/07 06:40:56;;;;;;;43.60;27.37;;;;;;;11.14;94.12;97947.16;5109815;28;20222;-58
2021/12/07 06:43:23;;;;;;;52.67;32.07;;;;;;;11.02;93.58;97925.84;5105353;28;20198;-58
2021/12/07 06:45:50;;;;;;;57.30;34.10;;;;;;;11.22;93.66;97952.19;5094953;28;20680;-58
2021/12/07 06:48:19;;;;;;;37.90;24.70;;;;;;;11.23;93.32;97951.34;5082767;28;20582;-58
2021/12/07 06:50:46;;;;;;;42.50;29.07;;;;;;;11.22;92.85;97945.34;5082325;28;20183;-58
2021/12/07 06:53:13;;;;;;;48.87;29.97;;;;;;;11.22;93.14;97945.34;5083091;28;20192;-57
2021/12/07 06:55:40;;;;;;;45.10;29.03;;;;;;;11.29;92.88;97942.72;5081834;28;20188;-57
2021/12/07 06:58:07;;;;;;;39.73;23.47;;;;;;;11.34;92.59;97946.06;5083936;28;20653;-57
2021/12/07 07:00:35;;;;;;;36.33;22.93;;;;;;;11.28;92.08;97939.28;5090356;28;20214;-58
2021/12/07 07:03:02;;;;;;;39.17;23.00;;;;;;;11.23;92.21;97926.47;5073143;28;20195;-58
2021/12/07 07:05:31;;;;;;;35.17;24.20;;;;;;;11.29;92.61;97920.41;5078248;28;20191;-58
2021/12/07 07:07:58;;;;;;;38.47;24.37;;;;;;;11.30;92.69;97922.13;5078044;28;20629;-58
2021/12/07 07:10:25;;;;;;;42.50;26.27;;;;;;;11.32;92.22;97917.78;5072883;28;20188;-58
2021/12/07 07:12:52;;;;;;;38.60;25.73;;;;;;;11.31;91.85;97918.69;5072775;28;20187;-58
2021/12/07 07:15:20;;;;;;;40.43;24.23;;;;;;;11.27;91.84;97929.84;5072437;28;20192;-57
2021/12/07 07:17:47;;;;;;;39.77;24.37;;;;;;;11.24;92.13;97925.59;5088883;28;20194;-57
2021/12/07 07:20:16;;;;;;;37.53;24.07;;;;;;;11.18;92.50;97919.66;5106020;28;20221;-57
2021/12/07 07:22:45;;;;;;;36.27;24.80;;;;;;;11.16;92.75;97919.69;5113273;28;20190;-57
2021/12/07 07:25:12;;;;;;;38.43;22.77;;;;;;;11.15;93.54;97917.16;5112987;28;20221;-57
2021/12/07 07:27:39;;;;;;;38.57;23.50;;;;;;;11.24;93.68;97922.19;5112735;28;20233;-58
2021/12/07 07:30:09;;;;;;;29.37;20.67;;;;;;;11.24;93.48;97922.19;5113130;28;20202;-58
2021/12/07 07:32:36;;;;;;;31.47;19.20;;;;;;;11.34;93.38;97912.66;5112775;28;20226;-58
2021/12/07 07:35:04;;;;;;;31.67;20.60;;;;;;;11.35;93.34;97920.34;5112820;28;20277;-58
2021/12/07 07:37:30;;;;;;;30.88;22.08;;;;;;;11.34;93.47;97916.06;5111742;28;20427;-58
2021/12/07 07:39:59;;;;;;;30.43;20.17;;;;;;;11.37;93.53;97922.91;5112422;28;20193;-58
2021/12/07 07:42:26;;;;;;;24.30;17.70;;;;;;;11.45;93.32;97928.81;5112634;28;20194;-58
2021/12/07 07:44:53;;;;;;;23.70;16.50;;;;;;;11.48;93.20;97931.34;5113330;28;20190;-58
2021/12/07 07:47:20;;;;;;;18.33;12.57;;;;;;;11.45;92.41;97927.09;5112763;28;20190;-57
2021/12/07 07:49:47;;;;;;;12.17;9.60;;;;;;;11.34;92.06;97930.66;5112719;28;20194;-57
2021/12/07 07:52:14;;;;;;;14.43;9.77;;;;;;;11.29;91.89;97940.16;5112629;28;20201;-58
2021/12/07 07:54:40;;;;;;;11.53;8.43;;;;;;;11.27;92.04;97953.00;5112385;28;20693;-58
2021/12/07 07:57:09;;;;;;;15.87;8.33;;;;;;;11.25;91.97;97955.59;5112505;28;20193;-57
2021/12/07 07:59:38;;;;;;;12.93;8.73;;;;;;;11.20;92.62;97941.94;5112164;28;20194;-57
2021/12/07 08:02:05;;;;;;;12.53;8.53;;;;;;;11.32;92.28;97963.25;5112126;28;20696;-57
2021/12/07 08:04:32;;;;;;;11.20;7.80;;;;;;;11.32;91.63;97958.94;5112086;28;20197;-57
2021/12/07 08:07:01;;;;;;;9.50;7.53;;;;;;;11.32;91.07;97958.94;5111873;28;20198;-57
2021/12/07 08:09:28;;;;;;;11.03;7.80;;;;;;;11.31;91.46;97952.09;5111886;28;20580;-58
2021/12/07 08:11:54;;;;;;;9.60;7.13;;;;;;;11.36;90.48;97958.03;5111793;28;20178;-59
2021/12/07 08:14:23;;;;;;;7.83;7.03;;;;;;;11.37;90.13;97956.31;5111781;28;20194;-57
2021/12/07 08:16:50;;;;;;;11.70;8.10;;;;;;;11.42;89.23;97957.97;5111558;28;20194;-58
2021/12/07 08:19:17;;;;;;;9.20;7.07;;;;;;;11.42;89.27;97967.41;5110398;28;20187;-57
2021/12/07 08:21:44;;;;;;;8.27;7.17;;;;;;;11.43;89.45;97975.09;5111569;28;20225;-57
2021/12/07 08:24:11;;;;;;;8.80;6.65;;;;;;;11.51;90.28;97975.03;5110493;28;20441;-58
2021/12/07 08:26:38;;;;;;;8.67;6.23;;;;;;;11.55;88.93;97959.53;5111483;28;20229;-58
2021/12/07 08:29:05;;;;;;;7.03;6.07;;;;;;;11.61;88.02;97968.88;5111404;28;20703;-58
2021/12/07 08:31:34;;;;;;;8.87;6.57;;;;;;;11.68;87.85;97968.78;5103607;28;20195;-58
2021/12/07 08:34:01;;;;;;;9.47;6.23;;;;;;;11.72;88.24;97967.06;5090879;28;20198;-57
2021/12/07 08:36:30;;;;;;;8.63;5.97;;;;;;;11.73;88.54;97968.75;5095887;28;20289;-58
2021/12/07 08:38:57;;;;;;;10.50;6.67;;;;;;;11.80;87.20;97970.38;5106212;28;20198;-58
2021/12/07 08:41:24;;;;;;;9.73;6.00;;;;;;;11.69;87.21;97924.22;5111353;28;20214;-58
2021/12/07 08:43:51;;;;;;;8.87;5.93;;;;;;;11.88;86.43;97947.13;5111514;28;20190;-58
2021/12/07 08:46:18;;;;;;;7.20;5.77;;;;;;;11.92;85.95;97952.19;5100728;28;20195;-58
2021/12/07 08:48:47;;;;;;;9.25;6.78;;;;;;;11.99;85.76;97947.81;5081624;28;20554;-60
2021/12/07 08:51:15;;;;;;;7.43;6.57;;;;;;;12.12;85.39;97941.63;5090658;28;20657;-58
2021/12/07 08:53:49;;;;;;;9.13;6.40;;;;;;;12.27;85.13;97942.25;5090756;28;20998;-58
2021/12/07 09:01:45;;;;;;;7.93;6.40;;;;;;;12.27;84.30;97929.38;5077131;28;20207;-58
2021/12/07 09:04:17;;;;;;;8.83;6.20;;;;;;;12.26;84.68;97937.97;5079679;28;20195;-58
2021/12/07 09:06:45;;;;;;;10.23;6.73;;;;;;;12.30;84.98;97918.19;5081032;28;20179;-58
2021/12/07 09:09:12;;;;;;;11.80;10.60;;;;;;;12.33;84.98;97924.09;5091720;28;20632;-58
2021/12/07 09:11:39;;;;;;;6.90;5.53;;;;;;;12.28;84.67;97917.31;5101358;28;20271;-58
2021/12/07 09:14:06;;;;;;;5.20;4.70;;;;;;;12.29;84.86;97914.75;5110643;28;20223;-57
2021/12/07 09:16:32;;;;;;;6.80;5.77;;;;;;;12.28;85.01;97912.19;5110181;28;20190;-57
2021/12/07 09:18:59;;;;;;;6.03;5.43;;;;;;;12.29;84.69;97919.03;5110490;28;20561;-57
2021/12/07 09:21:28;;;;;;;6.87;6.00;;;;;;;12.29;85.54;97919.91;5110134;28;20220;-58
2021/12/07 09:23:54;;;;;;;8.73;6.30;;;;;;;12.28;84.46;97928.47;5110849;28;20193;-57
2021/12/07 09:26:22;;;;;;;11.07;6.37;;;;;;;12.10;84.08;97920.19;5104409;28;20230;-58
2021/12/07 09:28:49;;;;;;;9.30;6.97;;;;;;;12.13;84.74;97920.16;5090535;28;20199;-57
2021/12/07 09:31:17;;;;;;;7.50;6.30;;;;;;;12.04;83.16;97903.13;5089680;28;20191;-58
2021/12/07 09:33:44;;;;;;;8.00;6.53;;;;;;;12.11;83.82;97903.88;5090055;28;20202;-58
2021/12/07 09:36:13;;;;;;;9.13;6.63;;;;;;;12.05;83.08;97912.56;5090310;28;20195;-58
2021/12/07 09:38:42;;;;;;;8.00;5.40;;;;;;;11.98;82.97;97908.34;5090031;28;20242;-58
2021/12/07 09:41:11;;;;;;;10.97;5.73;;;;;;;11.69;83.86;97910.50;5089678;28;20228;-58
2021/12/07 09:43:38;;;;;;;6.60;5.10;;;;;;;11.66;84.02;97920.81;5090329;28;20534;-58
2021/12/07 09:46:06;;;;;;;7.37;5.83;;;;;;;11.72;84.73;97918.19;5089957;28;20194;-57
2021/12/07 09:48:33;;;;;;;7.50;5.80;;;;;;;11.70;83.89;97925.09;5090361;28;20688;-57
2021/12/07 09:51:01;;;;;;;7.43;6.47;;;;;;;11.75;83.55;97903.56;5090124;28;20557;-58
2021/12/07 09:53:29;;;;;;;7.87;6.10;;;;;;;11.76;83.06;97901.81;5089770;28;20194;-61
2021/12/07 09:55:59;;;;;;;6.83;5.30;;;;;;;11.72;83.49;97893.31;5089822;28;20187;-61
2021/12/07 09:58:26;;;;;;;6.27;4.73;;;;;;;11.45;82.92;97857.66;5089676;28;20685;-62
2021/12/07 10:00:55;;;;;;;11.87;7.57;;;;;;;11.60;83.41;97890.88;5089677;28;20215;-61
2021/12/07 10:03:23;;;;;;;9.35;6.55;;;;;;;11.56;82.69;97880.66;5089708;28;21369;-62
2021/12/07 10:05:50;;;;;;;8.70;6.00;;;;;;;11.60;82.68;97890.00;5090003;28;20201;-61
2021/12/07 10:08:17;;;;;;;6.93;5.10;;;;;;;11.64;82.86;97887.41;5089830;28;20573;-61
2021/12/07 10:10:46;;;;;;;5.37;4.57;;;;;;;11.59;82.10;97890.91;5089569;28;20191;-60
2021/12/07 10:13:16;;;;;;;5.60;4.00;;;;;;;11.55;81.55;97887.50;5089801;28;20691;-61
2021/12/07 10:15:44;;;;;;;5.37;4.60;;;;;;;11.53;81.98;97871.25;5089518;28;20187;-61
2021/12/07 10:18:14;;;;;;;5.60;5.10;;;;;;;11.52;82.57;97876.41;5089588;28;20201;-60
2021/12/07 10:20:44;;;;;;;7.20;5.20;;;;;;;11.51;82.90;97872.16;5089322;28;20198;-61
2021/12/07 10:23:28;;;;;;;11.13;6.00;;;;;;;11.47;82.83;97875.63;5093197;28;20194;-60
2021/12/07 10:25:58;;;;;;;6.33;5.10;;;;;;;11.49;82.44;97876.44;5093607;28;20190;-60
2021/12/07 10:28:28;;;;;;;6.17;5.40;;;;;;;11.37;82.56;97872.31;5093227;28;20202;-61
2021/12/07 10:30:55;;;;;;;6.13;5.10;;;;;;;11.41;82.72;97868.84;5093580;28;20573;-60
2021/12/07 10:33:30;;;;;;;6.33;5.00;;;;;;;11.33;83.14;97874.94;5093264;28;20220;-61
2021/12/07 10:36:08;;;;;;;13.03;5.87;;;;;;;11.25;82.91;97868.19;5092994;28;20208;-60
2021/12/07 10:38:37;;;;;;;5.20;4.70;;;;;;;11.17;82.15;97870.00;5092990;28;20236;-61
2021/12/07 10:41:07;;;;;;;5.30;4.77;;;;;;;11.11;82.47;97870.06;5093346;28;20279;-61
2021/12/07 10:43:48;;;;;;;5.63;3.83;;;;;;;10.94;82.07;97868.56;5093113;28;20201;-62
2021/12/07 10:46:39;;;;;;;5.77;5.07;;;;;;;10.79;82.79;97861.03;5093292;28;20616;-61
2021/12/07 10:49:17;;;;;;;6.13;4.40;;;;;;;10.70;83.50;97861.97;5093018;28;20201;-61
2021/12/07 10:51:59;;;;;;;8.20;4.70;;;;;;;10.76;83.83;97861.06;5093085;28;20194;-62
2021/12/07 10:54:29;;;;;;;6.70;4.93;;;;;;;10.71;83.90;97850.84;5093093;28;20199;-61
2021/12/07 10:56:57;;;;;;;6.83;4.77;;;;;;;10.71;83.34;97850.84;5093070;28;20187;-61
2021/12/07 10:59:25;;;;;;;6.90;5.10;;;;;;;10.80;83.74;97849.88;5092911;28;20197;-62
2021/12/07 11:01:54;;;;;;;5.97;4.73;;;;;;;10.77;83.41;97843.06;5092437;28;20221;-60
2021/12/07 11:04:29;;;;;;;4.73;4.17;;;;;;;10.82;82.84;97833.59;5092661;28;20236;-61
2021/12/07 11:07:16;;;;;;;6.57;5.17;;;;;;;10.78;82.88;97834.50;5093181;28;20205;-61
2021/12/07 11:09:58;;;;;;;6.27;4.73;;;;;;;10.76;83.10;97833.66;5093020;28;20252;-61
2021/12/07 11:12:26;;;;;;;6.13;4.77;;;;;;;10.81;83.03;97833.59;5092641;28;20259;-61
2021/12/07 11:14:59;;;;;;;5.73;4.43;;;;;;;10.73;82.59;97835.41;5092788;28;20194;-61
2021/12/07 11:17:28;;;;;;;6.53;5.27;;;;;;;10.62;83.49;97832.97;5093100;28;20581;-61
2021/12/07 11:19:56;;;;;;;5.83;5.33;;;;;;;10.50;83.45;97831.38;5092489;28;20240;-60
2021/12/07 11:22:25;;;;;;;7.30;6.10;;;;;;;10.54;84.05;97837.34;5092542;28;20222;-60
2021/12/07 11:24:55;;;;;;;6.67;6.00;;;;;;;10.19;83.58;97804.28;5092703;28;20241;-61
2021/12/07 11:30:12;;;;;;;5.73;5.20;;;;;;;10.15;84.94;97828.28;5092934;28;20196;-61
2021/12/07 11:32:45;;;;;;;8.00;4.93;;;;;;;10.09;84.54;97834.28;5105559;28;20230;-61
2021/12/07 11:35:19;;;;;;;7.60;4.93;;;;;;;10.05;85.54;97824.91;5102108;28;20271;-62
2021/12/07 11:37:46;;;;;;;6.60;5.20;;;;;;;9.98;85.29;97832.69;5096929;28;20237;-61
2021/12/07 11:40:18;;;;;;;6.73;4.67;;;;;;;9.89;85.35;97825.91;5096799;28;20258;-61
2021/12/07 11:42:46;;;;;;;6.27;4.63;;;;;;;9.89;84.73;97825.03;5092663;28;20202;-61
2021/12/07 11:45:18;;;;;;;4.23;3.40;;;;;;;9.80;84.05;97825.13;5092673;28;20197;-61
2021/12/07 11:47:48;;;;;;;4.10;3.50;;;;;;;9.63;84.03;97817.56;5092960;28;20641;-60
2021/12/07 11:50:21;;;;;;;5.57;3.80;;;;;;;9.70;83.66;97826.03;5099384;28;20192;-60
2021/12/07 11:52:49;;;;;;;4.33;3.50;;;;;;;9.70;83.52;97837.16;5099227;28;20196;-59
2021/12/07 11:55:17;;;;;;;6.60;3.30;;;;;;;9.71;83.47;97826.06;5097628;28;20194;-61
2021/12/07 11:57:46;;;;;;;6.83;3.30;;;;;;;9.67;82.65;97832.06;5080301;28;20199;-60
2021/12/07 12:00:22;;;;;;;5.87;3.57;;;;;;;9.57;82.38;97821.88;5081562;28;20188;-61
2021/12/07 12:02:50;;;;;;;5.53;4.07;;;;;;;9.62;83.37;97831.22;5082153;28;20217;-60
2021/12/07 12:05:17;;;;;;;4.63;3.90;;;;;;;9.47;83.10;97824.53;5082671;28;20193;-57
2021/12/07 12:07:46;;;;;;;4.20;3.83;;;;;;;9.26;83.44;97803.28;5074010;28;20642;-57
2021/12/07 12:10:15;;;;;;;3.30;3.00;;;;;;;9.35;83.11;97819.47;5071518;28;20661;-57
2021/12/07 12:13:05;;;;;;;4.20;3.20;;;;;;;9.23;83.13;97827.19;5074080;28;20184;-57
2021/12/07 12:16:02;;;;;;;3.90;2.90;;;;;;;9.15;82.88;97826.38;5091223;28;20231;-57
2021/12/07 12:18:42;;;;;;;3.90;2.97;;;;;;;9.06;82.44;97823.03;5090879;28;20776;-56
2021/12/07 12:21:20;;;;;;;3.57;2.47;;;;;;;8.84;82.20;97776.19;5091120;28;20577;-56
2021/12/07 12:23:57;;;;;;;5.03;2.60;;;;;;;9.01;82.23;97815.34;5091219;28;20203;-56
2021/12/07 12:26:26;;;;;;;9.00;3.60;;;;;;;8.86;82.17;97815.44;5091099;28;20233;-56
2021/12/07 12:28:55;;;;;;;3.57;2.97;;;;;;;8.81;82.43;97806.94;5087920;28;20198;-56
2021/12/07 12:31:44;;;;;;;2.87;2.53;;;;;;;8.70;83.24;97808.69;5089646;28;20202;-56
2021/12/07 12:34:17;;;;;;;4.40;3.73;;;;;;;8.73;84.26;97812.09;5087252;28;20202;-56
2021/12/07 12:36:56;;;;;;;7.03;5.50;;;;;;;8.67;84.70;97809.53;5075182;28;20187;-56
2021/12/07 12:39:41;;;;;;;6.63;4.00;;;;;;;8.57;85.85;97815.53;5070724;28;20176;-56
2021/12/07 12:42:08;;;;;;;5.07;4.20;;;;;;;8.50;86.43;97824.09;5070698;28;20198;-56
2021/12/07 12:44:36;;;;;;;4.10;3.70;;;;;;;8.54;87.27;97815.53;5069612;28;20221;-56
2021/12/07 12:47:05;;;;;;;3.50;3.13;;;;;;;8.27;86.78;97792.56;5070922;28;20186;-56
2021/12/07 12:49:41;;;;;;;6.47;4.30;;;;;;;8.41;88.08;97824.09;5080013;28;20658;-56
2021/12/07 12:52:08;;;;;;;9.67;6.87;;;;;;;8.36;87.92;97814.72;5088695;28;20203;-56
2021/12/07 12:54:45;;;;;;;4.27;3.77;;;;;;;8.38;88.33;97824.09;5082575;28;20183;-56
2021/12/07 12:57:15;;;;;;;5.43;3.50;;;;;;;8.36;88.43;97820.69;5081323;28;20192;-56
2021/12/07 12:59:44;;;;;;;6.23;3.77;;;;;;;8.30;88.40;97825.81;5081072;28;20193;-56
2021/12/07 13:02:13;;;;;;;3.87;3.50;;;;;;;8.25;88.08;97828.38;5084933;28;20214;-56
2021/12/07 13:04:40;;;;;;;6.10;3.73;;;;;;;8.22;88.08;97825.81;5086416;28;20190;-56